Time;durP1;ratioP1;P1;durP2;ratioP2;P2;SDS_P1;SDS_P2;PMS_P1;PMS_P2;Temp;Humidity;BMP_temperature;BMP_pressure;BME280_temperature;BME280_humidity;BME280_pressure;Samples;Min_cycle;Max_cycle;Signal;HPM_P1;HPM_P2
2021/06/19 00:00:57;;;;;;;12.80;8.88;;;;;;;;;;4989787;28;20046;-61
2021/06/19 00:03:26;;;;;;;12.07;8.82;;;;;;;;;;4989823;28;20052;-61
2021/06/19 00:05:54;;;;;;;14.57;9.68;;;;;;;;;;4989801;28;20057;-61
2021/06/19 00:08:24;;;;;;;18.50;10.05;;;;;;;;;;4983108;28;20058;-61
2021/06/19 00:10:53;;;;;;;14.13;8.98;;;;;;;;;;4990345;28;20120;-61
2021/06/19 00:13:21;;;;;;;14.23;9.25;;;;;;;;;;4990088;28;20078;-61
2021/06/19 00:15:51;;;;;;;12.10;9.10;;;;;;;;;;4990804;28;20126;-61
2021/06/19 00:18:20;;;;;;;12.25;8.95;;;;;;;;;;4984668;28;20150;-61
2021/06/19 00:20:48;;;;;;;11.32;8.68;;;;;;;;;;4985915;28;20065;-61
2021/06/19 00:23:17;;;;;;;12.20;9.00;;;;;;;;;;4986090;28;20081;-61
2021/06/19 00:25:45;;;;;;;11.35;9.23;;;;;;;;;;4990260;28;20133;-61
2021/06/19 00:28:13;;;;;;;14.43;9.00;;;;;;;;;;4981029;28;20493;-61
2021/06/19 00:30:41;;;;;;;15.00;9.20;;;;;;;;;;4971186;28;20054;-61
2021/06/19 00:33:11;;;;;;;11.65;8.68;;;;;;;;;;4970903;28;20055;-61
2021/06/19 00:35:39;;;;;;;12.60;8.90;;;;;;;;;;4975569;28;20451;-61
2021/06/19 00:38:08;;;;;;;14.13;9.52;;;;;;;;;;4970331;28;20133;-61
2021/06/19 00:40:36;;;;;;;14.73;9.25;;;;;;;;;;4972905;28;20134;-61
2021/06/19 00:43:05;;;;;;;11.70;9.25;;;;;;;;;;4985685;28;20046;-61
2021/06/19 00:45:36;;;;;;;15.30;9.10;;;;;;;;;;4967391;28;20043;-61
2021/06/19 00:48:07;;;;;;;12.63;9.32;;;;;;;;;;4972179;28;20054;-61
2021/06/19 00:50:37;;;;;;;12.93;9.60;;;;;;;;;;4978829;28;20486;-61
2021/06/19 00:53:05;;;;;;;15.95;9.82;;;;;;;;;;4984285;28;20046;-61
2021/06/19 00:55:34;;;;;;;13.73;9.70;;;;;;;;;;4977639;28;20053;-61
2021/06/19 00:58:03;;;;;;;14.02;9.50;;;;;;;;;;4992650;28;20475;-61
2021/06/19 01:00:31;;;;;;;11.63;9.25;;;;;;;;;;4992702;28;20558;-61
2021/06/19 01:03:00;;;;;;;15.43;10.50;;;;;;;;;;5026470;23;20077;-58
2021/06/19 01:05:29;;;;;;;13.50;9.98;;;;;;;;;;5030551;28;20080;-59
2021/06/19 01:07:59;;;;;;;14.32;9.73;;;;;;;;;;5028944;28;20061;-59
2021/06/19 01:10:28;;;;;;;13.38;10.40;;;;;;;;;;5023503;28;20049;-59
2021/06/19 01:12:57;;;;;;;15.52;10.27;;;;;;;;;;5030872;28;20128;-60
2021/06/19 01:15:25;;;;;;;15.88;9.88;;;;;;;;;;5026307;28;20081;-59
2021/06/19 01:17:53;;;;;;;15.15;9.75;;;;;;;;;;5031469;28;20060;-59
2021/06/19 01:20:22;;;;;;;13.23;10.10;;;;;;;;;;5030284;28;20402;-59
2021/06/19 01:22:53;;;;;;;13.57;9.77;;;;;;;;;;5030440;28;20124;-59
2021/06/19 01:25:24;;;;;;;18.92;10.57;;;;;;;;;;5030138;28;20041;-60
2021/06/19 01:27:53;;;;;;;16.88;10.45;;;;;;;;;;5031722;28;20096;-60
2021/06/19 01:30:22;;;;;;;21.60;11.10;;;;;;;;;;5018748;28;20454;-58
2021/06/19 01:32:51;;;;;;;12.40;9.95;;;;;;;;;;5023146;28;20143;-59
2021/06/19 01:35:20;;;;;;;13.55;10.57;;;;;;;;;;5031351;28;20053;-59
2021/06/19 01:37:49;;;;;;;16.23;10.48;;;;;;;;;;5030989;28;20049;-59
2021/06/19 01:40:18;;;;;;;16.80;10.60;;;;;;;;;;5030869;28;20045;-58
2021/06/19 01:42:49;;;;;;;15.77;10.10;;;;;;;;;;5030569;28;20063;-59
2021/06/19 01:45:19;;;;;;;13.95;9.95;;;;;;;;;;5030633;28;20045;-58
2021/06/19 01:47:47;;;;;;;16.52;11.15;;;;;;;;;;5029900;28;20045;-59
2021/06/19 01:50:16;;;;;;;16.67;11.73;;;;;;;;;;5031870;28;20064;-59
2021/06/19 01:52:46;;;;;;;17.52;10.65;;;;;;;;;;5032229;28;20150;-59
2021/06/19 01:55:15;;;;;;;16.23;11.25;;;;;;;;;;5030907;28;20076;-59
2021/06/19 01:57:43;;;;;;;17.88;11.40;;;;;;;;;;5032038;28;20177;-59
2021/06/19 02:00:15;;;;;;;18.95;10.80;;;;;;;;;;5030432;28;20055;-58
2021/06/19 02:02:43;;;;;;;15.63;11.45;;;;;;;;;;5020049;28;20080;-59
2021/06/19 02:05:14;;;;;;;18.15;12.02;;;;;;;;;;5031745;28;20080;-59
2021/06/19 02:07:46;;;;;;;16.73;12.25;;;;;;;;;;5030096;28;20054;-59
2021/06/19 02:10:15;;;;;;;15.55;11.32;;;;;;;;;;5030491;28;20156;-58
2021/06/19 02:12:44;;;;;;;16.33;10.80;;;;;;;;;;5030065;28;20045;-58
2021/06/19 02:15:14;;;;;;;15.18;10.95;;;;;;;;;;5029553;28;20408;-59
2021/06/19 02:17:43;;;;;;;14.45;11.77;;;;;;;;;;5030186;28;20059;-58
2021/06/19 02:20:13;;;;;;;12.48;10.52;;;;;;;;;;5031132;28;20055;-58
2021/06/19 02:22:42;;;;;;;17.77;11.88;;;;;;;;;;5030333;28;20363;-59
2021/06/19 02:25:11;;;;;;;16.05;11.48;;;;;;;;;;5031005;28;20397;-60
2021/06/19 02:27:46;;;;;;;13.25;11.30;;;;;;;;;;5029173;28;20480;-58
2021/06/19 02:30:17;;;;;;;15.68;11.18;;;;;;;;;;5027262;28;20427;-59
2021/06/19 02:32:46;;;;;;;14.40;10.38;;;;;;;;;;5030157;28;20417;-58
2021/06/19 02:35:15;;;;;;;14.93;11.80;;;;;;;;;;5031147;28;20080;-58
2021/06/19 02:37:43;;;;;;;16.10;10.85;;;;;;;;;;5020765;28;20124;-58
2021/06/19 02:40:12;;;;;;;13.63;10.52;;;;;;;;;;5030787;28;20045;-59
2021/06/19 02:42:41;;;;;;;14.75;10.45;;;;;;;;;;5030097;28;20037;-58
2021/06/19 02:45:12;;;;;;;16.58;11.23;;;;;;;;;;5030245;28;20468;-59
2021/06/19 02:47:42;;;;;;;15.65;10.80;;;;;;;;;;5029183;28;20136;-58
2021/06/19 02:50:11;;;;;;;14.90;11.07;;;;;;;;;;5031104;28;20057;-58
2021/06/19 02:52:42;;;;;;;21.15;11.20;;;;;;;;;;5027277;28;20417;-58
2021/06/19 02:55:11;;;;;;;15.32;10.45;;;;;;;;;;5030808;28;20489;-59
2021/06/19 02:57:39;;;;;;;15.15;11.48;;;;;;;;;;5029793;28;20515;-59
2021/06/19 03:00:09;;;;;;;14.80;11.30;;;;;;;;;;5030846;28;20498;-59
2021/06/19 03:02:37;;;;;;;15.68;11.05;;;;;;;;;;5029479;28;20596;-59
2021/06/19 03:05:08;;;;;;;12.15;10.50;;;;;;;;;;5028936;28;20161;-59
2021/06/19 03:07:37;;;;;;;12.15;10.85;;;;;;;;;;5029307;28;20041;-59
2021/06/19 03:10:05;;;;;;;15.13;11.13;;;;;;;;;;5030424;28;20160;-59
2021/06/19 03:12:34;;;;;;;15.10;11.27;;;;;;;;;;5028555;28;20452;-59
2021/06/19 03:15:02;;;;;;;14.95;10.90;;;;;;;;;;5029670;28;20128;-59
2021/06/19 03:17:30;;;;;;;15.05;10.70;;;;;;;;;;5016813;28;20054;-59
2021/06/19 03:19:58;;;;;;;14.23;10.85;;;;;;;;;;5009510;28;20124;-58
2021/06/19 03:22:28;;;;;;;18.08;11.75;;;;;;;;;;5009491;28;20107;-58
2021/06/19 03:24:56;;;;;;;18.02;11.48;;;;;;;;;;5010254;28;20061;-58
2021/06/19 03:27:26;;;;;;;18.75;11.45;;;;;;;;;;5021196;28;20057;-58
2021/06/19 03:29:54;;;;;;;18.45;10.77;;;;;;;;;;5018988;28;20076;-60
2021/06/19 03:32:22;;;;;;;15.98;11.68;;;;;;;;;;5023221;28;20053;-59
2021/06/19 03:34:51;;;;;;;13.15;11.20;;;;;;;;;;5017042;28;20081;-61
2021/06/19 03:37:19;;;;;;;16.63;11.70;;;;;;;;;;5011800;28;20083;-59
2021/06/19 03:39:49;;;;;;;16.63;10.98;;;;;;;;;;5012769;28;20069;-58
2021/06/19 03:42:17;;;;;;;15.05;11.52;;;;;;;;;;5011252;28;20496;-59
2021/06/19 03:44:45;;;;;;;15.30;10.93;;;;;;;;;;5015332;28;20520;-59
2021/06/19 03:47:14;;;;;;;15.40;11.52;;;;;;;;;;5012068;28;20077;-58
2021/06/19 03:49:42;;;;;;;15.13;11.27;;;;;;;;;;5009516;28;20060;-59
2021/06/19 03:52:10;;;;;;;16.52;12.13;;;;;;;;;;5009900;28;20058;-58
2021/06/19 03:54:39;;;;;;;20.25;12.73;;;;;;;;;;5004694;28;20502;-58
2021/06/19 03:57:09;;;;;;;15.18;11.73;;;;;;;;;;5009206;28;20173;-59
2021/06/19 03:59:37;;;;;;;19.15;11.70;;;;;;;;;;5010014;28;20049;-59
2021/06/19 04:02:06;;;;;;;15.20;11.00;;;;;;;;;;5022476;28;20071;-59
2021/06/19 04:04:36;;;;;;;16.05;11.65;;;;;;;;;;5017461;28;20048;-59
2021/06/19 04:07:05;;;;;;;16.15;11.80;;;;;;;;;;5012701;28;20468;-59
2021/06/19 04:09:33;;;;;;;17.83;12.10;;;;;;;;;;5020387;28;20126;-59
2021/06/19 04:12:01;;;;;;;16.73;11.68;;;;;;;;;;5014465;28;20056;-58
2021/06/19 04:14:31;;;;;;;14.90;11.55;;;;;;;;;;5011402;28;20141;-59
2021/06/19 04:16:59;;;;;;;14.55;11.88;;;;;;;;;;5009875;28;20050;-59
2021/06/19 04:19:27;;;;;;;23.75;12.52;;;;;;;;;;5009361;28;20540;-59
2021/06/19 04:21:56;;;;;;;14.95;11.60;;;;;;;;;;5008831;28;20151;-59
2021/06/19 04:24:24;;;;;;;17.52;11.05;;;;;;;;;;5012233;28;20132;-59
2021/06/19 04:26:53;;;;;;;20.02;11.32;;;;;;;;;;5011463;28;20103;-59
2021/06/19 04:29:21;;;;;;;16.75;10.48;;;;;;;;;;5012997;28;20129;-59
2021/06/19 04:31:51;;;;;;;16.55;11.40;;;;;;;;;;5012364;28;20133;-59
2021/06/19 04:34:19;;;;;;;14.70;11.10;;;;;;;;;;5012334;28;20045;-59
2021/06/19 04:36:47;;;;;;;17.50;11.00;;;;;;;;;;5011435;28;20108;-59
2021/06/19 04:39:16;;;;;;;19.13;11.60;;;;;;;;;;5013218;28;20361;-60
2021/06/19 04:41:50;;;;;;;18.20;11.23;;;;;;;;;;5011773;28;20128;-59
2021/06/19 04:44:26;;;;;;;18.13;11.70;;;;;;;;;;5011659;28;20141;-59
2021/06/19 04:46:56;;;;;;;17.80;10.57;;;;;;;;;;5010842;28;20152;-59
2021/06/19 04:49:25;;;;;;;16.02;10.98;;;;;;;;;;5012577;28;20070;-59
2021/06/19 04:51:53;;;;;;;14.10;10.05;;;;;;;;;;5012423;28;20464;-59
2021/06/19 04:54:21;;;;;;;14.98;10.38;;;;;;;;;;5012619;28;20136;-59
2021/06/19 04:56:50;;;;;;;12.10;10.15;;;;;;;;;;5011992;28;20133;-59
2021/06/19 04:59:19;;;;;;;13.68;10.00;;;;;;;;;;5012635;28;20133;-59
2021/06/19 05:01:47;;;;;;;16.52;9.73;;;;;;;;;;5011268;28;20504;-59
2021/06/19 05:04:17;;;;;;;15.50;9.82;;;;;;;;;;5011861;28;20049;-59
2021/06/19 05:06:45;;;;;;;14.32;10.10;;;;;;;;;;5010944;28;20052;-58
2021/06/19 05:09:13;;;;;;;16.00;10.05;;;;;;;;;;5010931;28;20553;-58
2021/06/19 05:11:41;;;;;;;13.15;9.10;;;;;;;;;;5004610;28;20430;-58
2021/06/19 05:14:10;;;;;;;16.00;10.25;;;;;;;;;;5007520;28;20064;-59
2021/06/19 05:16:38;;;;;;;15.75;9.50;;;;;;;;;;5009597;28;20038;-59
2021/06/19 05:19:06;;;;;;;12.70;10.05;;;;;;;;;;5006346;28;20061;-59
2021/06/19 05:21:36;;;;;;;16.48;9.40;;;;;;;;;;4999927;28;20046;-59
2021/06/19 05:24:05;;;;;;;17.15;9.48;;;;;;;;;;5010848;28;20149;-60
2021/06/19 05:26:33;;;;;;;10.95;8.77;;;;;;;;;;5013788;28;20120;-59
2021/06/19 05:29:01;;;;;;;16.15;9.27;;;;;;;;;;5019158;28;20080;-59
2021/06/19 05:31:30;;;;;;;15.65;9.00;;;;;;;;;;5024936;28;20080;-60
2021/06/19 05:33:58;;;;;;;13.93;8.30;;;;;;;;;;5025740;28;20060;-59
2021/06/19 05:36:27;;;;;;;15.77;8.15;;;;;;;;;;5019030;28;20058;-59
2021/06/19 05:38:56;;;;;;;19.08;9.23;;;;;;;;;;5020148;28;20137;-59
2021/06/19 05:41:25;;;;;;;12.35;8.60;;;;;;;;;;5028572;28;20493;-59
2021/06/19 05:43:54;;;;;;;14.75;7.57;;;;;;;;;;5031453;28;20132;-58
2021/06/19 05:46:22;;;;;;;14.80;8.52;;;;;;;;;;5030213;28;20128;-60
2021/06/19 05:48:56;;;;;;;13.30;8.02;;;;;;;;;;5027346;28;20531;-59
2021/06/19 05:51:24;;;;;;;12.07;8.13;;;;;;;;;;5022546;28;20557;-59
2021/06/19 05:53:52;;;;;;;15.25;8.27;;;;;;;;;;5027471;28;20052;-60
2021/06/19 05:56:22;;;;;;;15.13;8.27;;;;;;;;;;5020251;28;20546;-58
2021/06/19 05:58:50;;;;;;;13.02;8.65;;;;;;;;;;5023506;28;20045;-59
2021/06/19 06:01:19;;;;;;;13.90;8.30;;;;;;;;;;5022720;28;20902;-59
2021/06/19 06:03:48;;;;;;;12.90;8.90;;;;;;;;;;5021858;28;20532;-59
2021/06/19 06:06:17;;;;;;;16.25;9.02;;;;;;;;;;5031406;28;20473;-59
2021/06/19 06:08:45;;;;;;;18.45;9.25;;;;;;;;;;5031289;28;20073;-59
2021/06/19 06:11:14;;;;;;;16.75;9.63;;;;;;;;;;5024411;28;20046;-59
2021/06/19 06:13:43;;;;;;;24.38;8.85;;;;;;;;;;5019908;28;20053;-59
2021/06/19 06:16:12;;;;;;;15.95;9.43;;;;;;;;;;5021158;28;20146;-58
2021/06/19 06:18:40;;;;;;;17.08;9.02;;;;;;;;;;5022863;28;20056;-59
2021/06/19 06:21:08;;;;;;;17.17;9.18;;;;;;;;;;5020351;28;20065;-58
2021/06/19 06:23:37;;;;;;;12.77;8.40;;;;;;;;;;5020234;28;20492;-58
2021/06/19 06:26:05;;;;;;;16.20;9.30;;;;;;;;;;5016496;28;20053;-59
2021/06/19 06:28:37;;;;;;;16.50;8.52;;;;;;;;;;5029772;28;20073;-59
2021/06/19 06:31:07;;;;;;;15.40;8.65;;;;;;;;;;5032070;28;20174;-60
2021/06/19 06:33:35;;;;;;;15.82;8.23;;;;;;;;;;5027660;28;20164;-59
2021/06/19 06:36:04;;;;;;;20.42;8.23;;;;;;;;;;5028634;28;20432;-59
2021/06/19 06:38:32;;;;;;;18.00;8.07;;;;;;;;;;5028573;28;20124;-59
2021/06/19 06:41:01;;;;;;;17.20;8.70;;;;;;;;;;5031195;28;20045;-58
2021/06/19 06:43:29;;;;;;;15.07;7.75;;;;;;;;;;5029183;28;20049;-60
2021/06/19 06:45:58;;;;;;;15.68;7.18;;;;;;;;;;5029565;28;20124;-60
2021/06/19 06:48:29;;;;;;;16.45;8.15;;;;;;;;;;5029674;28;20045;-59
2021/06/19 06:50:57;;;;;;;12.85;7.53;;;;;;;;;;5030620;28;20084;-59
2021/06/19 06:53:26;;;;;;;13.70;7.15;;;;;;;;;;5030581;28;20133;-59
2021/06/19 06:55:54;;;;;;;11.77;7.50;;;;;;;;;;5029766;28;20136;-60
2021/06/19 06:58:23;;;;;;;19.38;7.65;;;;;;;;;;5030603;28;20050;-59
2021/06/19 07:00:51;;;;;;;14.65;7.07;;;;;;;;;;5011259;28;20081;-59
2021/06/19 07:03:20;;;;;;;15.55;7.68;;;;;;;;;;5027501;28;20057;-59
2021/06/19 07:05:49;;;;;;;15.07;6.72;;;;;;;;;;5029212;28;20532;-59
2021/06/19 07:08:18;;;;;;;11.07;7.15;;;;;;;;;;5029633;28;20811;-60
2021/06/19 07:10:46;;;;;;;15.98;7.43;;;;;;;;;;5020192;28;20045;-60
2021/06/19 07:13:14;;;;;;;12.15;7.30;;;;;;;;;;5029544;28;20132;-59
2021/06/19 07:15:44;;;;;;;14.95;7.38;;;;;;;;;;5030480;28;20064;-59
2021/06/19 07:18:12;;;;;;;13.63;7.40;;;;;;;;;;5028864;28;20051;-59
2021/06/19 07:20:41;;;;;;;12.48;7.70;;;;;;;;;;5029736;28;20081;-60
2021/06/19 07:23:11;;;;;;;10.73;6.78;;;;;;;;;;5027814;28;20452;-59
2021/06/19 07:25:40;;;;;;;14.35;7.13;;;;;;;;;;5027823;28;20049;-60
2021/06/19 07:28:08;;;;;;;13.38;7.10;;;;;;;;;;5029469;28;20076;-59
2021/06/19 07:30:37;;;;;;;12.35;6.60;;;;;;;;;;5029423;28;20140;-60
2021/06/19 07:33:05;;;;;;;17.50;7.40;;;;;;;;;;5030205;28;20056;-60
2021/06/19 07:35:33;;;;;;;15.95;7.63;;;;;;;;;;5029100;28;20122;-59
2021/06/19 07:38:01;;;;;;;16.67;7.95;;;;;;;;;;5028834;28;20045;-59
2021/06/19 07:40:33;;;;;;;12.43;7.03;;;;;;;;;;5029018;28;20121;-59
2021/06/19 07:43:01;;;;;;;13.70;7.13;;;;;;;;;;5027067;28;20057;-60
2021/06/19 07:45:29;;;;;;;14.90;6.95;;;;;;;;;;5026035;28;20077;-60
2021/06/19 07:47:58;;;;;;;14.73;7.95;;;;;;;;;;5025757;28;20133;-59
2021/06/19 07:50:26;;;;;;;17.08;7.70;;;;;;;;;;5026499;28;20560;-59
2021/06/19 07:52:54;;;;;;;21.52;7.40;;;;;;;;;;5029860;28;20059;-59
2021/06/19 07:55:23;;;;;;;15.68;7.13;;;;;;;;;;5029080;28;20136;-59
2021/06/19 07:57:52;;;;;;;12.80;7.00;;;;;;;;;;5030970;28;20049;-60
2021/06/19 08:00:21;;;;;;;11.20;7.22;;;;;;;;;;5033577;28;20051;-59
2021/06/19 08:02:56;;;;;;;15.50;7.68;;;;;;;;;;5033148;28;20053;-59
2021/06/19 08:05:25;;;;;;;18.55;7.82;;;;;;;;;;5019850;28;20041;-59
2021/06/19 08:07:53;;;;;;;14.02;7.03;;;;;;;;;;5030529;28;20140;-59
2021/06/19 08:10:22;;;;;;;12.23;7.40;;;;;;;;;;5029612;28;20060;-59
2021/06/19 08:12:52;;;;;;;16.90;7.47;;;;;;;;;;5029780;28;20204;-59
2021/06/19 08:15:21;;;;;;;20.58;7.60;;;;;;;;;;5033799;28;20060;-60
2021/06/19 08:17:49;;;;;;;15.88;7.97;;;;;;;;;;5032656;28;20149;-59
2021/06/19 08:20:18;;;;;;;15.13;7.90;;;;;;;;;;5031505;28;20045;-59
2021/06/19 08:22:47;;;;;;;16.50;7.70;;;;;;;;;;5034013;28;20057;-60
2021/06/19 08:25:16;;;;;;;15.35;7.65;;;;;;;;;;5030904;28;20073;-59
2021/06/19 08:27:44;;;;;;;15.52;7.07;;;;;;;;;;5030400;28;20076;-59
2021/06/19 08:30:14;;;;;;;11.75;7.40;;;;;;;;;;5029746;28;20136;-59
2021/06/19 08:32:43;;;;;;;16.13;7.68;;;;;;;;;;5030701;28;20055;-59
2021/06/19 08:35:12;;;;;;;12.57;7.22;;;;;;;;;;5031535;28;20132;-59
2021/06/19 08:37:41;;;;;;;13.60;7.38;;;;;;;;;;5031420;28;20069;-59
2021/06/19 08:40:10;;;;;;;17.85;7.47;;;;;;;;;;5031760;28;20171;-60
2021/06/19 08:42:38;;;;;;;18.42;8.07;;;;;;;;;;5033238;28;20081;-59
2021/06/19 08:45:08;;;;;;;12.50;7.40;;;;;;;;;;5032783;28;20132;-59
2021/06/19 08:47:38;;;;;;;11.57;6.68;;;;;;;;;;5032785;28;20586;-59
2021/06/19 08:50:07;;;;;;;15.48;7.25;;;;;;;;;;5033108;28;20390;-59
2021/06/19 08:52:36;;;;;;;20.08;8.00;;;;;;;;;;5030816;28;20048;-59
2021/06/19 08:55:06;;;;;;;20.33;7.28;;;;;;;;;;5029818;28;20076;-59
2021/06/19 08:57:34;;;;;;;15.38;7.60;;;;;;;;;;5029649;28;20050;-59
2021/06/19 09:00:04;;;;;;;19.45;6.97;;;;;;;;;;5030069;28;20053;-59
2021/06/19 09:02:33;;;;;;;18.77;7.75;;;;;;;;;;5028929;28;20057;-59
2021/06/19 09:05:07;;;;;;;19.50;7.50;;;;;;;;;;5028837;28;20499;-59
2021/06/19 09:07:36;;;;;;;24.17;8.17;;;;;;;;;;5029383;28;20434;-59
2021/06/19 09:10:18;;;;;;;10.20;6.78;;;;;;;;;;5031181;28;20835;-59
2021/06/19 09:13:11;;;;;;;15.15;6.85;;;;;;;;;;5020548;28;20053;-59
2021/06/19 09:15:42;;;;;;;11.60;7.25;;;;;;;;;;5019437;28;20045;-59
2021/06/19 09:18:13;;;;;;;15.63;7.40;;;;;;;;;;5032289;28;20061;-59
2021/06/19 09:20:48;;;;;;;15.32;7.72;;;;;;;;;;5030941;28;20053;-59
2021/06/19 09:23:17;;;;;;;17.75;7.25;;;;;;;;;;5030628;28;20052;-59
2021/06/19 09:25:46;;;;;;;16.52;7.28;;;;;;;;;;5029061;28;20049;-59
2021/06/19 09:28:15;;;;;;;19.75;8.07;;;;;;;;;;5031265;28;20485;-59
2021/06/19 09:30:43;;;;;;;21.85;8.18;;;;;;;;;;5032228;28;20050;-59
2021/06/19 09:33:12;;;;;;;14.45;7.13;;;;;;;;;;5032552;28;20045;-59
2021/06/19 09:35:41;;;;;;;18.55;7.65;;;;;;;;;;5032453;28;20049;-59
2021/06/19 09:38:12;;;;;;;14.35;7.60;;;;;;;;;;5031241;28;20045;-59
2021/06/19 09:40:41;;;;;;;10.68;7.05;;;;;;;;;;5032110;28;20052;-60
2021/06/19 09:43:11;;;;;;;14.30;7.05;;;;;;;;;;5032300;28;20509;-60
2021/06/19 09:45:40;;;;;;;13.38;7.15;;;;;;;;;;5032008;28;20170;-60
2021/06/19 09:48:23;;;;;;;16.42;7.22;;;;;;;;;;5030197;28;20286;-60
2021/06/19 09:51:06;;;;;;;19.27;7.40;;;;;;;;;;5030143;28;20077;-60
2021/06/19 09:53:36;;;;;;;16.35;7.97;;;;;;;;;;5029362;28;20057;-59
2021/06/19 09:56:04;;;;;;;14.73;7.10;;;;;;;;;;5029275;28;20061;-59
2021/06/19 09:58:40;;;;;;;13.88;7.40;;;;;;;;;;5030744;28;20049;-59
2021/06/19 10:01:09;;;;;;;15.57;7.28;;;;;;;;;;5031887;28;20556;-59
2021/06/19 10:03:50;;;;;;;15.43;7.07;;;;;;;;;;5031655;28;20061;-59
2021/06/19 10:06:19;;;;;;;13.85;7.30;;;;;;;;;;5031352;28;20046;-59
2021/06/19 10:08:50;;;;;;;14.10;7.40;;;;;;;;;;5029599;28;20045;-58
2021/06/19 10:11:19;;;;;;;18.13;7.95;;;;;;;;;;5030854;28;20124;-59
2021/06/19 10:13:48;;;;;;;13.00;7.55;;;;;;;;;;5029461;28;20556;-59
2021/06/19 10:16:17;;;;;;;12.80;7.22;;;;;;;;;;5030879;28;20091;-60
2021/06/19 10:18:46;;;;;;;12.57;7.93;;;;;;;;;;5030249;28;20088;-59
2021/06/19 10:21:16;;;;;;;11.50;6.43;;;;;;;;;;5030391;28;20073;-59
2021/06/19 10:23:45;;;;;;;20.70;7.50;;;;;;;;;;5028594;28;20124;-59
2021/06/19 10:26:15;;;;;;;14.60;7.22;;;;;;;;;;5027492;28;20140;-59
2021/06/19 10:28:46;;;;;;;10.95;6.85;;;;;;;;;;5026531;28;20568;-59
2021/06/19 10:31:18;;;;;;;16.63;6.90;;;;;;;;;;5028006;28;20489;-59
2021/06/19 10:33:47;;;;;;;15.48;7.38;;;;;;;;;;5007827;28;20075;-59
2021/06/19 10:36:16;;;;;;;13.32;7.18;;;;;;;;;;5027517;28;20065;-60
2021/06/19 10:38:51;;;;;;;13.55;7.55;;;;;;;;;;5018552;28;20064;-60
2021/06/19 10:41:22;;;;;;;15.85;7.25;;;;;;;;;;5030812;28;20044;-60
2021/06/19 10:43:51;;;;;;;12.90;7.35;;;;;;;;;;5031076;28;20059;-60
2021/06/19 10:46:33;;;;;;;14.25;7.75;;;;;;;;;;5030055;28;20120;-60
2021/06/19 10:49:02;;;;;;;13.52;7.20;;;;;;;;;;5030033;28;20046;-59
2021/06/19 10:51:33;;;;;;;13.80;7.00;;;;;;;;;;5029863;28;20144;-59
2021/06/19 10:54:12;;;;;;;15.02;6.72;;;;;;;;;;5027394;28;20049;-59
2021/06/19 10:56:50;;;;;;;11.75;6.30;;;;;;;;;;5027558;28;20053;-60
2021/06/19 10:59:19;;;;;;;15.20;7.38;;;;;;;;;;5026967;28;20072;-59
2021/06/19 11:01:48;;;;;;;13.07;7.32;;;;;;;;;;5026640;28;20041;-60
2021/06/19 11:04:35;;;;;;;13.45;7.32;;;;;;;;;;5026999;28;20080;-60
2021/06/19 11:07:03;;;;;;;10.18;6.97;;;;;;;;;;5027371;28;20085;-60
2021/06/19 11:09:37;;;;;;;13.82;6.95;;;;;;;;;;5027507;28;20056;-59
2021/06/19 11:12:09;;;;;;;17.40;7.07;;;;;;;;;;5027886;28;20144;-59
2021/06/19 11:14:53;;;;;;;12.93;7.43;;;;;;;;;;5030252;28;20097;-60
2021/06/19 11:17:41;;;;;;;12.23;6.88;;;;;;;;;;5029651;28;20524;-58
2021/06/19 11:20:23;;;;;;;11.05;6.70;;;;;;;;;;5028237;28;20404;-60
2021/06/19 11:22:56;;;;;;;18.58;7.45;;;;;;;;;;5025183;28;20049;-59
2021/06/19 11:25:36;;;;;;;10.35;6.97;;;;;;;;;;5028881;28;20080;-59
2021/06/19 11:28:08;;;;;;;14.55;7.63;;;;;;;;;;5027305;28;20076;-60
2021/06/19 11:30:47;;;;;;;14.43;7.15;;;;;;;;;;5027867;28;20063;-60
2021/06/19 11:33:34;;;;;;;13.05;7.18;;;;;;;;;;5028818;28;20056;-60
2021/06/19 11:36:21;;;;;;;15.00;7.03;;;;;;;;;;5028479;28;20103;-60
2021/06/19 11:38:51;;;;;;;9.95;6.88;;;;;;;;;;5027699;28;20049;-60
2021/06/19 11:41:20;;;;;;;14.48;7.07;;;;;;;;;;5022614;28;20148;-60
2021/06/19 11:43:50;;;;;;;11.63;6.43;;;;;;;;;;5023712;28;20050;-60
2021/06/19 11:46:19;;;;;;;12.95;7.03;;;;;;;;;;5025861;28;20179;-61
2021/06/19 11:48:51;;;;;;;14.43;6.82;;;;;;;;;;5017301;28;20053;-61
2021/06/19 11:51:21;;;;;;;16.75;7.18;;;;;;;;;;5012525;28;20140;-61
2021/06/19 11:53:49;;;;;;;10.27;6.63;;;;;;;;;;5027921;28;20045;-60
2021/06/19 11:56:19;;;;;;;9.95;6.50;;;;;;;;;;5029176;28;20104;-61
2021/06/19 11:58:48;;;;;;;11.50;6.20;;;;;;;;;;5028946;28;20076;-61
2021/06/19 12:01:19;;;;;;;13.55;6.90;;;;;;;;;;5028649;28;20056;-61
2021/06/19 12:03:48;;;;;;;9.40;6.22;;;;;;;;;;5029196;28;20390;-60
2021/06/19 12:06:17;;;;;;;10.15;7.25;;;;;;;;;;5027685;28;20053;-61
2021/06/19 12:08:45;;;;;;;8.73;6.43;;;;;;;;;;5029436;28;20519;-61
2021/06/19 12:11:25;;;;;;;12.43;7.07;;;;;;;;;;5028951;28;20481;-61
2021/06/19 12:13:54;;;;;;;14.25;6.85;;;;;;;;;;5027552;28;20512;-60
2021/06/19 12:16:43;;;;;;;12.40;6.60;;;;;;;;;;5026513;28;20080;-61
2021/06/19 12:19:12;;;;;;;12.75;7.03;;;;;;;;;;5025209;28;20269;-61
2021/06/19 12:21:41;;;;;;;9.88;5.93;;;;;;;;;;5021110;28;20465;-61
2021/06/19 12:24:25;;;;;;;10.65;5.82;;;;;;;;;;5026435;28;20190;-61
2021/06/19 12:27:05;;;;;;;11.35;5.70;;;;;;;;;;5025777;28;20073;-60
2021/06/19 12:29:35;;;;;;;10.77;5.72;;;;;;;;;;5022698;28;20136;-59
2021/06/19 12:32:18;;;;;;;11.65;5.90;;;;;;;;;;5026041;28;20774;-60
2021/06/19 12:34:47;;;;;;;9.15;6.30;;;;;;;;;;5023889;28;20723;-59
2021/06/19 12:37:16;;;;;;;13.20;6.20;;;;;;;;;;5023806;28;20156;-60
2021/06/19 12:39:57;;;;;;;8.60;5.80;;;;;;;;;;1726682;28;10023451;-60
2021/06/19 12:42:39;;;;;;;12.27;6.03;;;;;;;;;;3986626;28;10001272;-60
2021/06/19 12:45:09;;;;;;;12.35;7.03;;;;;;;;;;5027734;28;20171;-60
2021/06/19 12:47:40;;;;;;;11.80;6.57;;;;;;;;;;5028292;28;20472;-60
2021/06/19 12:50:09;;;;;;;11.90;6.47;;;;;;;;;;5029671;28;20053;-60
2021/06/19 12:52:52;;;;;;;11.25;5.97;;;;;;;;;;5029638;28;20124;-59
2021/06/19 12:55:21;;;;;;;10.55;6.65;;;;;;;;;;5029154;28;20101;-59
2021/06/19 12:58:02;;;;;;;8.43;5.60;;;;;;;;;;5031199;28;20100;-60
2021/06/19 13:00:36;;;;;;;13.20;6.10;;;;;;;;;;5031960;28;20535;-60
2021/06/19 13:03:06;;;;;;;8.85;5.90;;;;;;;;;;5031080;28;20064;-59
2021/06/19 13:05:34;;;;;;;9.43;6.13;;;;;;;;;;5031241;28;20100;-60
2021/06/19 13:08:13;;;;;;;12.43;6.90;;;;;;;;;;5030162;28;20171;-60
2021/06/19 13:10:41;;;;;;;10.70;6.32;;;;;;;;;;5026067;28;20081;-60
2021/06/19 13:13:10;;;;;;;9.60;6.72;;;;;;;;;;5031613;28;20052;-60
2021/06/19 13:15:39;;;;;;;8.88;6.55;;;;;;;;;;5032221;28;20053;-60
2021/06/19 13:18:15;;;;;;;19.05;9.45;;;;;;;;;;5030948;28;20335;-60
2021/06/19 13:20:43;;;;;;;14.38;6.97;;;;;;;;;;5029087;28;20390;-60
2021/06/19 13:23:13;;;;;;;11.10;6.38;;;;;;;;;;5031153;28;20076;-60
2021/06/19 13:25:54;;;;;;;11.20;6.55;;;;;;;;;;5031010;28;20057;-59
2021/06/19 13:28:36;;;;;;;11.80;6.60;;;;;;;;;;5030514;28;20566;-59
2021/06/19 13:31:05;;;;;;;10.18;6.40;;;;;;;;;;5032757;28;20128;-59
2021/06/19 13:33:35;;;;;;;14.35;6.50;;;;;;;;;;5032180;28;20049;-59
2021/06/19 13:36:03;;;;;;;9.82;6.22;;;;;;;;;;5030759;28;20176;-60
2021/06/19 13:38:47;;;;;;;8.32;6.18;;;;;;;;;;5032051;28;20073;-60
2021/06/19 13:41:22;;;;;;;8.02;5.97;;;;;;;;;;5015284;28;20493;-60
2021/06/19 13:43:50;;;;;;;11.20;5.90;;;;;;;;;;5031941;28;20049;-61
2021/06/19 13:46:18;;;;;;;8.13;5.57;;;;;;;;;;5031051;28;20042;-59
2021/06/19 13:48:48;;;;;;;12.00;5.50;;;;;;;;;;5030870;28;20049;-59
2021/06/19 13:51:17;;;;;;;13.88;5.82;;;;;;;;;;5031281;28;20045;-60
2021/06/19 13:53:46;;;;;;;10.70;5.63;;;;;;;;;;5028779;28;20049;-60
2021/06/19 13:56:14;;;;;;;7.15;5.75;;;;;;;;;;5036302;28;20053;-61
2021/06/19 13:58:43;;;;;;;10.57;5.68;;;;;;;;;;5031685;28;20042;-59
2021/06/19 14:01:12;;;;;;;10.38;6.10;;;;;;;;;;5030606;28;20341;-60
2021/06/19 14:03:40;;;;;;;6.85;5.38;;;;;;;;;;5031123;28;20567;-59
2021/06/19 14:06:15;;;;;;;9.05;5.32;;;;;;;;;;5030195;28;20107;-60
2021/06/19 14:08:44;;;;;;;8.27;5.57;;;;;;;;;;5030748;28;20137;-59
2021/06/19 14:11:13;;;;;;;15.18;6.32;;;;;;;;;;5029435;28;20136;-63
2021/06/19 14:13:41;;;;;;;8.10;6.00;;;;;;;;;;5030484;28;20049;-59
2021/06/19 14:16:10;;;;;;;10.70;6.10;;;;;;;;;;5029766;28;20099;-59
2021/06/19 14:18:39;;;;;;;10.27;6.05;;;;;;;;;;5030689;28;20049;-61
2021/06/19 14:21:08;;;;;;;8.98;5.88;;;;;;;;;;5022941;28;20167;-60
2021/06/19 14:23:39;;;;;;;9.55;6.15;;;;;;;;;;5029541;28;20056;-60
2021/06/19 14:26:09;;;;;;;8.88;5.97;;;;;;;;;;5028451;28;20077;-60
2021/06/19 14:28:39;;;;;;;8.93;5.88;;;;;;;;;;5029860;28;20140;-60
2021/06/19 14:31:08;;;;;;;8.88;6.60;;;;;;;;;;5030148;28;20049;-60
2021/06/19 14:33:37;;;;;;;10.38;5.78;;;;;;;;;;5025822;28;20501;-60
2021/06/19 14:36:06;;;;;;;10.30;6.20;;;;;;;;;;5025906;28;20131;-61
2021/06/19 14:38:34;;;;;;;13.15;6.22;;;;;;;;;;5028764;28;20054;-60
2021/06/19 14:41:04;;;;;;;9.43;6.18;;;;;;;;;;5017973;28;20050;-60
2021/06/19 14:43:33;;;;;;;11.98;6.82;;;;;;;;;;5023167;28;20077;-60